Hlavní strana
METAR-TAF:

METAR-TAF

Letiště :

Jackson, Tennessee, Spojené státy americké

zeměpisná šířka: 35-35-35N, zeměpisná délka: 088-55-00W, výška: 132 m

Aktuální stav počasí

Zpráva byla vytvořena před 46 minutami, v 09:53 UTC
Jihozápadní vítr 6 kt
Teplota 5°C
Vlhkost vzduchu 93%
Tlak 1013 hPa
Viditelnost: 16.1 km
Zataženo ve výšce 600 ft

METAR: KMKL 240953Z AUTO 22006KT 10SM OVC006 05/04 A2991 RMK AO2 SLP129 T00500044 $

Čas: 04:39 (10:39 UTC)

Předpověď počasí

Zpráva byla vytvořena před 1 hodinou a 37 minutami, v 09:02 UTC
Předpověď platná od 24 v 09 UTC do 25 v 06 UTC
Jihozápadní vítr 5 kt
Viditelnost: 10 km
Zataženo ve výšce 800 ft
Od 24 v 1500 UTC
Západojihozápadní vítr 10 kt s nárazy do 15 kt
Viditelnost: 10 km
Zataženo ve výšce 1000 ft
přeháňky v blízkosti
Od 24 v 2300 UTC
Západojihozápadní vítr 10 kt
Viditelnost: 10 km
Oblačno až skoro zataženo ve výšce 3000 ft

TAF: KMKL 240902Z 2409/2506 22005KT P6SM OVC008 FM241500 24010G15KT P6SM VCSH OVC010 FM242300 25010KT P6SM BKN030

Stav a předpovědi počasí z více než 4 000 letišť (zprávy METAR a TAF).

Červené a žluté tečky na mapě představují dostupné meteorologické stanice.

Když kurzor umístíte na tečku, zobrazí se název stanice.

Pak kliknutím zobrazíte stav a předpověď počasí.

Chcete-li změnit mapu, kliknutím na zelené tlačítko se znaménkem +mapu přiblížíte, kliknutím na zelené tlačítko se znaménkem – mapu oddálíte a kliknutím na zelené šipky přejdete na sousední mapy.


METAR-TAF: